Página principal
METAR-TAF:

METAR-TAF

Aeroportos :

Alor Setar, Malásia

latitude: 06-11-40N, longitude: 100-24-03E, altura: 5 m

Observação actual do tempo

O boletim foi feito há 42 minutos, às 04:00 UTC
Vento 6 kt de nordeste, variando entre noroeste e este
Temperatura 33°C
Humidade 59%
Pressão 1012 hPa
Visibilidade 10 km ou mais
Poucas nuvensa uma altura de 2000 ft

METAR: WMKA 230400Z 04006KT 320V100 9999 FEW020 33/24 Q1012

Hora: 12:42 (04:42 UTC)

Previsão

O boletim foi feito há 5 horas e 42 minutos, às 23:00 UTC
Previsão válida de 23 às 00 UTC a 24 às 00 UTC
Vento 8 kt de es-nordeste
Visibilidade 10 km ou mais
Poucas nuvensa uma altura de 2000 ft
Tornando-se
de 23 às 10 UTC a 23 às 12 UTC
Vento 5 kt de nordeste
Poucas nuvensa uma altura de 2800 ft

TAF: WMKA 222300Z 2300/2400 07008KT 9999 FEW020 BECMG 2310/2312 05005KT FEW028

Observações e previsões do tempo de mais de 4000 aeroportos (mensagens METAR e TAF).

As estações disponíveis são os pontos amarelos e vermelhos sobre o mapa.

Mova o rato sobre o mapa para ver o nome da estação.

Depois clique no ponto para visualizar as observações e previsões meteorológicas.

Para alterar o mapa : clique nos botões verdes com uma cruz preta para aumentar o zoom; no botão verde com uma pitada de zoom; ou nas setas verdes para mapas adjacentes.


METAR-TAF: